Averill Park, NY

1:14 PM EDT on August 30, 2016 (GMT -0400)
Taborton Mountain | | Change Station

Elev 1296 ft 42.61 °N, 73.48 °W | Updated 43 seconds ago

Scattered Clouds
Scattered Clouds
73.0 °F
Feels Like 77 °F
N
4.9
Wind Variable Wind from SSE
Gusts 8.0 mph

Today
High -- | Low -- °F
--% Chance of Precip.
Yesterday
High -- | Low -- °F
Precip. -- in
Pressure 30.13 in
Visibility 10.0 miles
Clouds Few 4600 ft
Few 22000 ft
Scattered Clouds 26000 ft
Heat Index 77 °F
Dew Point 57 °F
Humidity 57%
Rainfall 0.00 in
Snow Depth Not available.
6:17 AM 7:31 PM
Waning Crescent, 3% visible
METAR KALB 301651Z 28003KT 10SM FEW046 FEW220 SCT260 24/13 A3013 RMK AO2 SLP203 SCT V BKN T02440133
Pressure 30.13 in
Visibility 10.0 miles
Clouds Few 4600 ft
Few 22000 ft
Scattered Clouds 26000 ft
Heat Index 77 °F
Dew Point 57 °F
Humidity 57%
Rainfall 0.00 in
Snow Depth Not available.
6:17 AM 7:31 PM
Waning Crescent, 3% visible
METAR KALB 301651Z 28003KT 10SM FEW046 FEW220 SCT260 24/13 A3013 RMK AO2 SLP203 SCT V BKN T02440133

10-Day Weather Forecast

Almanac

Astronomy

Aug. 30, 2016 Rise Set
Actual Time
Civil Twilight
Nautical Twilight
Astronomical Twilight
Moon
Length of Visible Light
Length of Day
Tomorrow will be .
, % of the Moon is Illuminated

Today's Extremes

State Highs State Lows

Community

WunderPhotos

Upload Photos

1,935,848 photos uploaded!

WunderBlog® & News

Nearby

Air Quality

  Air Quality AQ Index Pollutant
Not available.

Snow Depth

Station Depth Elevation

Earthquake Activity

City Distance Mag. Time & Date
Minimum magnitude displayed is 2.5.

Coastal Water Temperatures

Place Temperature

Stations

Nearby Weather Stations

Station Location Temp. Windchill Dew Point Humidity Wind Precip. Elev Updated Type
                   

Watches & Warnings

There are currently no watches in effect.